Time;durP1;ratioP1;P1;durP2;ratioP2;P2;SDS_P1;SDS_P2;PMS_P1;PMS_P2;Temp;Humidity;BMP_temperature;BMP_pressure;BME280_temperature;BME280_humidity;BME280_pressure;Samples;Min_cycle;Max_cycle;Signal;HPM_P1;HPM_P2
2021/03/31 00:01:09;;;;;;;1999.90;999.90;;;11.00;46.10;;;;;;5064927;28;20044;-72
2021/03/31 00:03:35;;;;;;;1999.90;999.90;;;11.00;46.00;;;;;;5064796;28;20044;-73
2021/03/31 00:06:02;;;;;;;1999.90;999.90;;;10.90;45.90;;;;;;5065343;28;20123;-72
2021/03/31 00:08:31;;;;;;;1999.90;999.90;;;10.90;45.90;;;;;;5062111;28;20601;-73
2021/03/31 00:10:59;;;;;;;1999.90;999.90;;;10.90;45.90;;;;;;5069029;28;20040;-72
2021/03/31 00:13:26;;;;;;;1999.90;999.90;;;10.90;45.90;;;;;;5064939;28;20063;-72
2021/03/31 00:15:54;;;;;;;1999.90;999.90;;;10.90;46.10;;;;;;5067638;28;20385;-73
2021/03/31 00:18:21;;;;;;;1999.90;999.90;;;10.80;46.00;;;;;;5067428;28;20140;-72
2021/03/31 00:20:48;;;;;;;1999.90;999.90;;;10.80;46.10;;;;;;5061268;28;20395;-72
2021/03/31 00:23:17;;;;;;;1999.90;999.90;;;10.70;46.20;;;;;;5068713;28;20052;-73
2021/03/31 00:25:43;;;;;;;1999.90;999.90;;;10.70;46.20;;;;;;5065405;28;20049;-72
2021/03/31 00:28:11;;;;;;;1999.90;999.90;;;10.70;46.20;;;;;;5063278;28;20135;-72
2021/03/31 00:30:38;;;;;;;1999.90;999.90;;;10.60;46.20;;;;;;5062244;28;20049;-72
2021/03/31 00:33:05;;;;;;;1999.90;999.90;;;10.60;46.20;;;;;;5069229;28;20542;-72
2021/03/31 00:35:31;;;;;;;1999.90;999.90;;;10.60;46.20;;;;;;5063992;28;20064;-72
2021/03/31 00:37:58;;;;;;;1999.90;999.90;;;10.60;46.20;;;;;;5069523;28;20074;-72
2021/03/31 00:40:27;;;;;;;1999.90;999.90;;;10.50;46.40;;;;;;5068686;28;20094;-72
2021/03/31 00:42:54;;;;;;;1999.90;999.90;;;10.50;46.20;;;;;;5064870;28;20077;-72
2021/03/31 00:45:21;;;;;;;1999.90;999.90;;;10.50;46.20;;;;;;5069439;28;20475;-72
2021/03/31 00:47:47;;;;;;;1999.90;999.90;;;10.50;46.40;;;;;;5066893;28;20086;-72
2021/03/31 00:50:16;;;;;;;1999.90;999.90;;;10.40;46.30;;;;;;5067623;28;20076;-73
2021/03/31 00:52:44;;;;;;;1999.90;999.90;;;10.40;46.40;;;;;;5061060;28;20072;-72
2021/03/31 00:55:12;;;;;;;1999.90;999.90;;;10.30;46.40;;;;;;5063439;28;20040;-73
2021/03/31 00:57:39;;;;;;;1999.90;999.90;;;10.20;46.40;;;;;;5063621;28;20128;-72
2021/03/31 01:00:07;;;;;;;1999.90;999.90;;;10.20;46.40;;;;;;5061348;28;20090;-72
2021/03/31 01:02:35;;;;;;;1999.90;999.90;;;10.20;46.60;;;;;;5058745;28;20071;-72
2021/03/31 01:05:07;;;;;;;1999.90;999.90;;;10.20;46.50;;;;;;5064877;28;20048;-72
2021/03/31 01:07:33;;;;;;;1999.90;999.90;;;10.20;46.50;;;;;;5060481;28;20484;-72
2021/03/31 01:10:00;;;;;;;1999.90;999.90;;;10.20;46.50;;;;;;5065867;28;20098;-73
2021/03/31 01:12:45;;;;;;;1999.90;999.90;;;10.20;46.50;;;;;;5062087;28;20139;-72
2021/03/31 01:15:18;;;;;;;1999.90;999.90;;;10.10;46.60;;;;;;5057681;28;20636;-72
2021/03/31 01:18:17;;;;;;;1999.90;999.90;;;10.10;46.50;;;;;;5056932;28;20045;-72
2021/03/31 01:20:56;;;;;;;;;;;10.10;46.60;;;;;;5056497;28;20059;-72
2021/03/31 01:23:46;;;;;;;1999.90;999.90;;;10.10;46.50;;;;;;5057759;28;19921;-72
2021/03/31 01:26:42;;;;;;;1999.90;999.90;;;10.00;46.00;;;;;;5057769;28;20052;-72
2021/03/31 01:29:36;;;;;;;1999.90;999.90;;;9.90;47.00;;;;;;5058359;28;20056;-73
2021/03/31 01:32:09;;;;;;;1999.90;999.90;;;9.90;47.20;;;;;;5055908;28;20056;-72
2021/03/31 01:34:47;;;;;;;1999.90;999.90;;;9.80;47.10;;;;;;5057238;28;20048;-72
2021/03/31 01:37:20;;;;;;;1999.90;999.90;;;9.70;47.30;;;;;;5059697;28;20967;-72
2021/03/31 01:39:48;;;;;;;1999.90;999.90;;;9.60;47.40;;;;;;5061522;28;23215;-72
2021/03/31 01:42:16;;;;;;;1999.90;999.90;;;9.60;47.70;;;;;;5059345;28;20118;-72
2021/03/31 01:44:43;;;;;;;1999.90;999.90;;;9.50;47.60;;;;;;5063418;28;20356;-72
2021/03/31 01:47:13;;;;;;;1999.90;999.90;;;9.40;47.60;;;;;;5059434;28;20040;-73
2021/03/31 01:49:41;;;;;;;1999.90;999.90;;;9.40;47.70;;;;;;5060958;28;20068;-73
2021/03/31 01:52:11;;;;;;;1999.90;999.90;;;9.40;47.90;;;;;;5060120;28;20045;-72
2021/03/31 01:54:40;;;;;;;;;;;9.30;47.80;;;;;;5062548;28;20075;-72
2021/03/31 01:57:09;;;;;;;1999.90;999.90;;;9.30;48.10;;;;;;5060373;28;20385;-72
2021/03/31 01:59:37;;;;;;;1999.90;999.90;;;9.30;47.40;;;;;;5060385;28;20057;-72
2021/03/31 02:02:08;;;;;;;1999.90;999.90;;;9.20;47.60;;;;;;5060358;28;20152;-72
2021/03/31 02:04:37;;;;;;;1999.90;999.90;;;9.20;47.70;;;;;;5061380;28;20062;-72
2021/03/31 02:07:08;;;;;;;1999.90;999.90;;;9.20;47.80;;;;;;5061021;28;20127;-72
2021/03/31 02:09:38;;;;;;;1999.90;999.90;;;9.20;47.90;;;;;;5059939;28;20176;-72
2021/03/31 02:12:07;;;;;;;1999.90;999.90;;;9.20;48.00;;;;;;5059866;28;20045;-71
2021/03/31 02:14:42;;;;;;;1999.90;999.90;;;9.20;48.00;;;;;;5060940;28;20423;-72
2021/03/31 02:17:15;;;;;;;1999.90;999.90;;;9.20;48.00;;;;;;5061109;28;20496;-72
2021/03/31 02:19:42;;;;;;;1999.90;999.90;;;9.10;47.90;;;;;;5061999;28;20156;-72
2021/03/31 02:22:09;;;;;;;1999.90;999.90;;;9.10;47.90;;;;;;5059162;28;20067;-72
2021/03/31 02:24:36;;;;;;;1999.90;999.90;;;9.10;47.90;;;;;;5061307;28;20420;-72
2021/03/31 02:27:22;;;;;;;1999.90;999.90;;;9.00;48.00;;;;;;5059745;28;20049;-72
2021/03/31 02:29:49;;;;;;;1999.90;999.90;;;8.90;48.10;;;;;;5060591;28;20095;-72
2021/03/31 02:32:20;;;;;;;1999.90;999.90;;;8.90;48.20;;;;;;5058055;28;20106;-73
2021/03/31 02:34:49;;;;;;;1999.90;999.90;;;8.80;48.30;;;;;;5060602;28;20075;-72
2021/03/31 02:37:16;;;;;;;1999.90;999.90;;;8.80;48.40;;;;;;5059230;28;20054;-72
2021/03/31 02:39:46;;;;;;;1999.90;999.90;;;8.70;48.30;;;;;;5061243;28;20484;-72
2021/03/31 02:42:15;;;;;;;1999.90;999.90;;;8.70;48.40;;;;;;5060963;28;20074;-72
2021/03/31 02:44:45;;;;;;;1999.90;999.90;;;8.70;48.40;;;;;;5060854;28;20055;-72
2021/03/31 02:47:15;;;;;;;1999.90;999.90;;;8.60;48.50;;;;;;5058197;28;20037;-72
2021/03/31 02:49:45;;;;;;;1999.90;999.90;;;8.60;49.20;;;;;;5059066;28;20051;-72
2021/03/31 02:52:12;;;;;;;1999.90;999.90;;;8.50;48.50;;;;;;5056638;28;20076;-72
2021/03/31 02:54:42;;;;;;;1999.90;999.90;;;8.50;48.70;;;;;;5060226;28;20041;-72
2021/03/31 02:57:10;;;;;;;1999.90;999.90;;;8.40;48.70;;;;;;5059904;28;20095;-72
2021/03/31 02:59:40;;;;;;;1999.90;999.90;;;8.40;48.70;;;;;;5060269;28;20110;-72
2021/03/31 03:02:09;;;;;;;1999.90;999.90;;;8.40;48.90;;;;;;5058290;28;20090;-72
2021/03/31 03:04:37;;;;;;;1999.90;999.90;;;8.40;48.90;;;;;;5059165;28;20132;-72
2021/03/31 03:07:06;;;;;;;1999.90;999.90;;;8.40;49.40;;;;;;5059935;28;20468;-72
2021/03/31 03:09:34;;;;;;;1999.90;999.90;;;8.40;48.80;;;;;;5060492;28;20070;-72
2021/03/31 03:12:00;;;;;;;1999.90;999.90;;;8.30;48.80;;;;;;5057164;28;20064;-72
2021/03/31 03:14:28;;;;;;;1999.90;999.90;;;8.30;48.70;;;;;;5060144;28;21475;-72
2021/03/31 03:16:55;;;;;;;1999.90;999.90;;;8.30;48.90;;;;;;5065388;28;20453;-72
2021/03/31 03:19:21;;;;;;;1999.90;999.90;;;8.30;48.90;;;;;;5066574;28;20088;-72
2021/03/31 03:21:49;;;;;;;1999.90;999.90;;;8.30;49.10;;;;;;5066166;28;20044;-72
2021/03/31 03:24:16;;;;;;;1999.90;999.90;;;8.20;49.10;;;;;;5069574;28;20126;-72
2021/03/31 03:26:43;;;;;;;1999.90;999.90;;;8.20;49.10;;;;;;5062101;28;20988;-72
2021/03/31 03:29:10;;;;;;;1999.90;999.90;;;8.20;49.20;;;;;;5065965;28;20063;-72
2021/03/31 03:31:37;;;;;;;1999.90;999.90;;;8.20;49.30;;;;;;5062362;28;20125;-72
2021/03/31 03:34:08;;;;;;;1999.90;999.90;;;8.10;49.20;;;;;;5068386;28;20151;-74
2021/03/31 03:36:44;;;;;;;1999.90;999.90;;;8.10;49.20;;;;;;5069541;28;20055;-72
2021/03/31 03:39:11;;;;;;;1999.90;999.90;;;8.10;49.30;;;;;;5066016;28;20162;-72
2021/03/31 03:41:37;;;;;;;1999.90;999.90;;;8.00;49.20;;;;;;5065479;28;20062;-72
2021/03/31 03:44:06;;;;;;;1999.90;999.90;;;7.90;49.20;;;;;;5066036;28;20390;-72
2021/03/31 03:46:35;;;;;;;1999.90;999.90;;;7.80;49.30;;;;;;5068175;28;20043;-71
2021/03/31 03:49:03;;;;;;;1999.90;999.90;;;7.80;49.40;;;;;;5066501;28;20040;-72
2021/03/31 03:51:31;;;;;;;1999.90;999.90;;;7.80;49.50;;;;;;5061968;28;20226;-72
2021/03/31 03:53:57;;;;;;;1999.90;999.90;;;7.70;49.50;;;;;;5067924;28;20490;-72
2021/03/31 03:56:24;;;;;;;1999.90;999.90;;;7.60;49.50;;;;;;5068214;28;20055;-72
2021/03/31 03:58:50;;;;;;;1999.90;999.90;;;7.60;49.80;;;;;;5064363;28;20044;-72
2021/03/31 04:01:17;;;;;;;1999.90;999.90;;;7.60;49.80;;;;;;5066905;28;20083;-72
2021/03/31 04:03:44;;;;;;;1999.90;999.90;;;7.60;49.80;;;;;;5062041;28;20056;-72
2021/03/31 04:06:10;;;;;;;1999.90;999.90;;;7.60;49.90;;;;;;5065923;28;20083;-72
2021/03/31 04:08:37;;;;;;;1999.90;999.90;;;7.50;49.90;;;;;;5066398;28;20052;-72
2021/03/31 04:11:06;;;;;;;1999.90;999.90;;;7.40;49.90;;;;;;5067100;28;20075;-72
2021/03/31 04:13:34;;;;;;;1999.90;999.90;;;7.40;50.00;;;;;;5061184;28;20131;-72
2021/03/31 04:16:10;;;;;;;1999.90;999.90;;;7.40;50.20;;;;;;5067044;28;20074;-72
2021/03/31 04:18:39;;;;;;;1999.90;999.90;;;7.30;50.20;;;;;;5066087;28;20052;-74
2021/03/31 04:21:07;;;;;;;1999.90;999.90;;;7.30;50.30;;;;;;5060618;28;22129;-72
2021/03/31 04:23:34;;;;;;;1999.90;999.90;;;7.30;50.30;;;;;;5066865;28;20110;-72
2021/03/31 04:26:01;;;;;;;1999.90;999.90;;;7.30;50.40;;;;;;5059695;28;20048;-72
2021/03/31 04:28:29;;;;;;;1999.90;999.90;;;7.20;50.30;;;;;;5058732;28;20044;-71
2021/03/31 04:30:57;;;;;;;1999.90;999.90;;;7.20;50.30;;;;;;5062200;28;20046;-71
2021/03/31 04:33:24;;;;;;;1999.90;999.90;;;7.20;50.30;;;;;;5059791;28;20052;-72
2021/03/31 04:35:54;;;;;;;1999.90;999.90;;;7.20;50.40;;;;;;5065201;28;20203;-72
2021/03/31 04:38:20;;;;;;;1999.90;999.90;;;7.20;50.50;;;;;;5062866;28;20422;-72
2021/03/31 04:41:00;;;;;;;1999.90;999.90;;;7.20;50.40;;;;;;5058532;28;20048;-72
2021/03/31 04:43:32;;;;;;;1999.90;999.90;;;7.20;50.30;;;;;;5065784;28;20079;-72
2021/03/31 04:45:59;;;;;;;1999.90;999.90;;;7.20;50.30;;;;;;5059884;28;20048;-72
2021/03/31 04:48:26;;;;;;;1999.90;999.90;;;7.20;50.30;;;;;;5064081;28;20121;-72
2021/03/31 04:50:53;;;;;;;1999.90;999.90;;;7.20;50.30;;;;;;5057875;28;20499;-72
2021/03/31 04:53:19;;;;;;;1999.90;999.90;;;7.20;50.30;;;;;;5066229;28;20051;-72
2021/03/31 04:55:46;;;;;;;1999.90;999.90;;;7.10;50.30;;;;;;5062027;28;20511;-72
2021/03/31 04:58:13;;;;;;;1999.90;999.90;;;7.10;50.40;;;;;;5064735;28;20105;-72
2021/03/31 05:00:39;;;;;;;1999.90;999.90;;;7.10;50.50;;;;;;5058692;28;20494;-72
2021/03/31 05:03:07;;;;;;;1999.90;999.90;;;7.00;50.50;;;;;;5063360;28;20508;-72
2021/03/31 05:05:37;;;;;;;1999.90;999.90;;;7.00;50.70;;;;;;5060963;28;20041;-72
2021/03/31 05:08:04;;;;;;;1999.90;999.90;;;6.90;50.60;;;;;;5055754;28;20045;-72
2021/03/31 05:10:30;;;;;;;1999.90;999.90;;;7.00;50.80;;;;;;5056100;28;20051;-73
2021/03/31 05:12:56;;;;;;;1999.90;999.90;;;6.90;50.90;;;;;;5061719;28;20077;-72
2021/03/31 05:15:23;;;;;;;1999.90;999.90;;;6.90;50.90;;;;;;5065441;28;21080;-72
2021/03/31 05:17:49;;;;;;;1999.90;999.90;;;6.90;50.90;;;;;;5064388;28;20099;-72
2021/03/31 05:20:16;;;;;;;1999.90;999.90;;;7.00;51.10;;;;;;5065136;28;20049;-72
2021/03/31 05:22:43;;;;;;;1999.90;999.90;;;7.00;51.10;;;;;;5061507;28;20052;-72
2021/03/31 05:25:10;;;;;;;1999.90;999.90;;;7.00;51.00;;;;;;5065621;28;20078;-72
2021/03/31 05:27:37;;;;;;;1999.90;999.90;;;7.00;51.00;;;;;;5064542;28;20048;-72
2021/03/31 05:30:09;;;;;;;1999.90;999.90;;;7.00;51.10;;;;;;5068767;28;20037;-72
2021/03/31 05:32:35;;;;;;;1999.90;999.90;;;7.00;51.10;;;;;;5059823;28;20049;-71
2021/03/31 05:35:03;;;;;;;1999.90;999.90;;;7.00;51.30;;;;;;5084979;28;20128;-72
2021/03/31 05:37:29;;;;;;;1999.90;999.90;;;7.00;51.10;;;;;;5061634;28;20062;-72
2021/03/31 05:39:56;;;;;;;1999.90;999.90;;;7.00;51.10;;;;;;5092210;28;20078;-72
2021/03/31 05:53:38;;;;;;;1999.90;999.90;;;7.00;51.40;;;;;;5066175;28;20388;-72
2021/03/31 05:56:08;;;;;;;1999.90;999.90;;;7.00;51.60;;;;;;5066130;28;20074;-72
2021/03/31 05:58:35;;;;;;;1999.90;999.90;;;7.10;51.90;;;;;;5065103;28;20049;-72
2021/03/31 06:01:05;;;;;;;1999.90;999.90;;;7.10;51.90;;;;;;5066372;28;20048;-72
2021/03/31 06:03:32;;;;;;;1999.90;999.90;;;7.20;52.20;;;;;;5070688;28;20044;-72
2021/03/31 06:06:00;;;;;;;1999.90;999.90;;;7.30;52.30;;;;;;5064356;28;20041;-72
2021/03/31 06:08:26;;;;;;;1999.90;999.90;;;7.30;52.30;;;;;;5059950;28;20240;-72
2021/03/31 06:11:02;;;;;;;1999.90;999.90;;;7.40;52.50;;;;;;5066140;28;20462;-72
2021/03/31 06:13:47;;;;;;;1999.90;999.90;;;7.50;52.70;;;;;;5069525;28;20504;-71
2021/03/31 06:16:43;;;;;;;1999.90;999.90;;;7.50;52.90;;;;;;5061118;28;20098;-72
2021/03/31 06:19:19;;;;;;;1999.90;999.90;;;7.60;53.10;;;;;;5057081;28;20052;-72
2021/03/31 06:22:20;;;;;;;1999.90;999.90;;;7.70;53.20;;;;;;5056038;28;20148;-72
2021/03/31 06:25:24;;;;;;;1999.90;999.90;;;7.90;53.30;;;;;;5056056;28;20056;-72
2021/03/31 06:27:53;;;;;;;1999.90;999.90;;;8.00;53.50;;;;;;5055127;28;20053;-72
2021/03/31 06:30:28;;;;;;;1999.90;999.90;;;8.20;53.60;;;;;;5057056;28;20077;-72
2021/03/31 06:32:55;;;;;;;1999.90;999.90;;;8.30;53.70;;;;;;5055587;28;20040;-72
2021/03/31 06:35:27;;;;;;;1999.90;999.90;;;8.50;53.80;;;;;;5056583;28;20203;-72
2021/03/31 06:38:06;;;;;;;1999.90;999.90;;;8.60;53.90;;;;;;5055531;28;20057;-72
2021/03/31 06:40:45;;;;;;;1999.90;999.90;;;8.80;54.30;;;;;;5057578;28;20056;-72
2021/03/31 06:43:42;;;;;;;1999.90;999.90;;;8.90;54.40;;;;;;5056963;28;20166;-72
2021/03/31 06:46:06;;;;;;;1999.90;999.90;;;9.00;54.80;;;;;;5055898;28;20049;-72
2021/03/31 06:48:34;;;;;;;1999.90;999.90;;;9.20;54.80;;;;;;5057845;28;20135;-71
2021/03/31 06:51:01;;;;;;;1999.90;999.90;;;9.30;54.90;;;;;;5054903;28;20048;-71
2021/03/31 06:53:29;;;;;;;1999.90;999.90;;;9.50;54.90;;;;;;5056797;28;20063;-72
2021/03/31 06:56:00;;;;;;;1999.90;999.90;;;9.70;55.30;;;;;;5056378;28;20052;-71
2021/03/31 06:58:27;;;;;;;1999.90;999.90;;;9.80;56.10;;;;;;5056314;28;20605;-72
2021/03/31 07:00:53;;;;;;;1999.90;999.90;;;10.00;54.50;;;;;;5053895;28;20064;-72
2021/03/31 07:03:20;;;;;;;1999.90;999.90;;;10.20;54.90;;;;;;5056974;28;20098;-72
2021/03/31 07:05:47;;;;;;;1999.90;999.90;;;10.40;55.00;;;;;;5055822;28;20041;-72
2021/03/31 07:08:15;;;;;;;1999.90;999.90;;;10.50;54.70;;;;;;5057526;28;21121;-72
2021/03/31 07:10:53;;;;;;;1999.90;999.90;;;10.70;54.50;;;;;;5059335;28;20060;-73
2021/03/31 07:13:27;;;;;;;1999.90;999.90;;;10.90;54.60;;;;;;5058541;28;20048;-72
2021/03/31 07:15:54;;;;;;;1999.90;999.90;;;11.00;54.50;;;;;;5060097;28;20126;-72
2021/03/31 07:18:25;;;;;;;1999.90;999.90;;;11.20;54.50;;;;;;5060342;28;20619;-73
2021/03/31 07:20:52;;;;;;;1999.90;999.90;;;11.40;54.70;;;;;;5057461;28;20080;-73
2021/03/31 07:23:23;;;;;;;1999.90;999.90;;;11.50;55.20;;;;;;5059001;28;20064;-73
2021/03/31 07:25:50;;;;;;;1999.90;999.90;;;11.60;54.60;;;;;;5057865;28;20131;-72
2021/03/31 07:28:20;;;;;;;1999.90;999.90;;;11.80;54.70;;;;;;5057271;28;20068;-73
2021/03/31 07:30:49;;;;;;;1999.90;999.90;;;12.00;54.80;;;;;;5058559;28;20055;-72
2021/03/31 07:33:20;;;;;;;;;;;12.10;55.00;;;;;;5060804;28;20080;-73
2021/03/31 07:35:47;;;;;;;1999.90;999.90;;;12.20;55.90;;;;;;5059689;28;20050;-72
2021/03/31 07:38:15;;;;;;;1999.90;999.90;;;12.40;55.30;;;;;;5058478;28;20131;-72
2021/03/31 07:40:43;;;;;;;1999.90;999.90;;;12.50;55.00;;;;;;5058918;28;20052;-72
2021/03/31 07:43:34;;;;;;;1999.90;999.90;;;12.60;55.30;;;;;;5056958;28;20139;-72
2021/03/31 07:46:02;;;;;;;1999.90;999.90;;;12.80;55.20;;;;;;5050463;28;20090;-72
2021/03/31 07:48:30;;;;;;;1999.90;999.90;;;12.90;55.40;;;;;;5059180;28;20143;-72
2021/03/31 07:50:57;;;;;;;1999.90;999.90;;;13.10;55.20;;;;;;5056985;28;20059;-72
2021/03/31 07:53:23;;;;;;;1999.90;999.90;;;13.20;55.40;;;;;;5057510;28;20048;-72
2021/03/31 07:55:52;;;;;;;1999.90;999.90;;;13.40;55.70;;;;;;5058172;28;20476;-72
2021/03/31 07:58:24;;;;;;;1999.90;999.90;;;13.50;55.90;;;;;;5057898;28;20064;-73
2021/03/31 08:00:56;;;;;;;1999.90;999.90;;;13.70;56.20;;;;;;5055983;28;20065;-72
2021/03/31 08:03:26;;;;;;;1999.90;999.90;;;13.80;56.50;;;;;;5058364;28;20135;-72
2021/03/31 08:06:20;;;;;;;1999.90;999.90;;;14.00;56.50;;;;;;5058361;28;20050;-72
2021/03/31 08:08:50;;;;;;;1999.90;999.90;;;14.10;56.40;;;;;;5058343;28;20132;-73
2021/03/31 08:11:39;;;;;;;1999.90;999.90;;;14.30;56.30;;;;;;5057234;28;20121;-73
2021/03/31 08:14:11;;;;;;;1999.90;999.90;;;14.40;56.40;;;;;;5058599;28;20055;-70
2021/03/31 08:16:43;;;;;;;1999.90;999.90;;;14.60;56.60;;;;;;5056942;28;20063;-72
2021/03/31 08:19:15;;;;;;;1999.90;999.90;;;14.70;57.00;;;;;;5058165;28;20076;-72
2021/03/31 08:21:44;;;;;;;1999.90;999.90;;;14.80;58.00;;;;;;5055177;28;20045;-72
2021/03/31 08:24:11;;;;;;;1999.90;999.90;;;14.80;57.70;;;;;;5058500;28;20447;-72
2021/03/31 08:26:46;;;;;;;1999.90;999.90;;;14.90;57.40;;;;;;5055388;28;20043;-72
2021/03/31 08:29:19;;;;;;;1999.90;999.90;;;15.00;57.10;;;;;;5058399;28;20071;-72
2021/03/31 08:31:57;;;;;;;1999.90;999.90;;;15.10;57.20;;;;;;5056993;28;20047;-72
2021/03/31 08:34:24;;;;;;;;;;;15.10;57.40;;;;;;5058092;28;20049;-72
2021/03/31 08:36:51;;;;;;;1999.90;999.90;;;15.20;58.50;;;;;;5058312;28;19947;-73
2021/03/31 08:39:17;;;;;;;1999.90;999.90;;;15.30;57.40;;;;;;5058223;28;20535;-72
2021/03/31 08:41:46;;;;;;;1999.90;999.90;;;15.40;57.50;;;;;;5057173;28;20052;-72
2021/03/31 08:44:24;;;;;;;1999.90;999.90;;;15.50;57.30;;;;;;5057377;28;20055;-72
2021/03/31 08:46:52;;;;;;;1999.90;999.90;;;15.70;57.50;;;;;;5055401;28;20068;-73
2021/03/31 08:49:27;;;;;;;1999.90;999.90;;;15.80;57.80;;;;;;5055685;28;20511;-73
2021/03/31 08:51:59;;;;;;;1999.90;999.90;;;16.00;57.70;;;;;;5055488;28;20210;-73
2021/03/31 08:54:31;;;;;;;1999.90;999.90;;;16.10;57.90;;;;;;5056779;28;20131;-72
2021/03/31 08:57:02;;;;;;;1999.90;999.90;;;16.30;58.00;;;;;;5056670;28;20076;-73
2021/03/31 08:59:32;;;;;;;1999.90;999.90;;;16.40;57.80;;;;;;5057291;28;20055;-72
2021/03/31 09:01:59;;;;;;;1999.90;999.90;;;16.50;57.90;;;;;;5057879;28;20086;-72
2021/03/31 09:04:26;;;;;;;1999.90;999.90;;;16.70;58.00;;;;;;5054994;28;20662;-72
2021/03/31 09:06:54;;;;;;;1999.90;999.90;;;16.90;58.40;;;;;;5057215;28;20058;-72
2021/03/31 09:09:21;;;;;;;1999.90;999.90;;;17.10;58.20;;;;;;5057908;28;20564;-72
2021/03/31 09:11:56;;;;;;;1999.90;999.90;;;17.20;58.00;;;;;;5056509;28;20053;-72
2021/03/31 09:14:25;;;;;;;1999.90;999.90;;;17.30;58.20;;;;;;5058662;28;20456;-73
2021/03/31 09:16:55;;;;;;;1999.90;999.90;;;17.40;58.10;;;;;;5056090;28;21750;-72
2021/03/31 09:19:29;;;;;;;1999.90;999.90;;;17.60;58.00;;;;;;5057046;28;20048;-72
2021/03/31 09:21:55;;;;;;;1999.90;999.90;;;17.70;58.30;;;;;;5056188;28;20045;-73
2021/03/31 09:24:25;;;;;;;1999.90;999.90;;;17.80;58.20;;;;;;5056114;28;20048;-73
2021/03/31 09:27:10;;;;;;;1999.90;999.90;;;18.00;58.50;;;;;;5053825;28;20094;-73
2021/03/31 09:29:41;;;;;;;1999.90;999.90;;;18.10;58.50;;;;;;5057593;28;20049;-72
2021/03/31 09:32:13;;;;;;;1999.90;999.90;;;18.20;58.30;;;;;;5055217;28;20059;-72
2021/03/31 09:34:43;;;;;;;1999.90;999.90;;;18.40;58.60;;;;;;5057274;28;20040;-73
2021/03/31 09:37:15;;;;;;;1999.90;999.90;;;18.50;58.50;;;;;;5056812;28;20041;-73
2021/03/31 09:39:48;;;;;;;1999.90;999.90;;;18.60;58.70;;;;;;5054499;28;23268;-73
2021/03/31 09:42:21;;;;;;;1999.90;999.90;;;18.80;58.80;;;;;;5054595;28;20048;-75
2021/03/31 09:44:48;;;;;;;1999.90;999.90;;;19.00;59.00;;;;;;5057449;28;20371;-73
2021/03/31 09:47:15;;;;;;;1999.90;999.90;;;19.10;59.00;;;;;;5056672;28;20543;-72
2021/03/31 09:49:44;;;;;;;1999.90;999.90;;;19.20;58.70;;;;;;5054685;28;20036;-72
2021/03/31 09:52:12;;;;;;;1999.90;999.90;;;19.40;58.80;;;;;;5056805;28;20041;-72
2021/03/31 09:54:46;;;;;;;;;;;19.40;58.70;;;;;;5058494;28;20053;-72
2021/03/31 09:57:15;;;;;;;1999.90;999.90;;;19.60;59.00;;;;;;5058056;28;19929;-72
2021/03/31 09:59:42;;;;;;;1999.90;999.90;;;19.70;59.00;;;;;;5060158;28;20060;-72
2021/03/31 10:02:11;;;;;;;1999.90;999.90;;;19.90;59.10;;;;;;5060310;28;20411;-73
2021/03/31 10:04:40;;;;;;;1999.90;999.90;;;20.10;59.30;;;;;;5061079;28;22963;-72
2021/03/31 10:07:15;;;;;;;1999.90;999.90;;;20.20;59.00;;;;;;5058869;28;20052;-72
2021/03/31 10:09:59;;;;;;;1999.90;999.90;;;20.40;58.80;;;;;;5060686;28;20072;-72
2021/03/31 10:12:31;;;;;;;1999.90;999.90;;;20.60;59.00;;;;;;5059834;28;20132;-72
2021/03/31 10:14:59;;;;;;;1999.90;999.90;;;20.90;59.30;;;;;;5061450;28;20064;-73
2021/03/31 10:17:30;;;;;;;1999.90;999.90;;;21.10;59.40;;;;;;5060360;28;20105;-72
2021/03/31 10:20:11;;;;;;;1999.90;999.90;;;21.40;59.80;;;;;;5059826;28;20070;-72
2021/03/31 10:22:38;;;;;;;1999.90;999.90;;;21.70;61.20;;;;;;5061100;28;20102;-72
2021/03/31 10:25:27;;;;;;;1999.90;999.90;;;22.00;63.00;;;;;;5059950;28;20063;-73
2021/03/31 10:28:34;;;;;;;1999.90;999.90;;;22.40;65.00;;;;;;5058540;28;20088;-73
2021/03/31 10:31:21;;;;;;;1999.90;999.90;;;22.70;68.00;;;;;;5058732;28;20396;-72
2021/03/31 10:34:07;;;;;;;1999.90;999.90;;;23.00;69.50;;;;;;5061259;28;20352;-73
2021/03/31 10:36:50;;;;;;;1999.90;999.90;;;23.30;72.60;;;;;;5061434;28;20140;-73
2021/03/31 10:48:15;;;;;;;1999.90;999.90;;;24.20;77.10;;;;;;5059435;28;20386;-73
2021/03/31 10:50:47;;;;;;;1999.90;999.90;;;24.30;77.50;;;;;;5057686;28;20048;-72
2021/03/31 10:53:13;;;;;;;1999.90;999.90;;;24.50;75.90;;;;;;5059752;28;20136;-72
2021/03/31 10:55:42;;;;;;;1999.90;999.90;;;24.50;73.80;;;;;;5059925;28;20072;-73
2021/03/31 10:58:10;;;;;;;1999.90;999.90;;;24.50;71.60;;;;;;5060666;28;20052;-73
2021/03/31 11:00:37;;;;;;;1999.90;999.90;;;24.50;69.70;;;;;;5059866;28;20060;-73
2021/03/31 11:03:19;;;;;;;1999.90;999.90;;;24.30;67.00;;;;;;5059307;28;20161;-73
2021/03/31 11:05:52;;;;;;;1999.90;999.90;;;24.20;65.50;;;;;;5059391;28;20205;-72
2021/03/31 11:08:18;;;;;;;1999.90;999.90;;;24.30;66.20;;;;;;5059752;28;20040;-73
2021/03/31 11:10:45;;;;;;;1999.90;999.90;;;24.50;65.60;;;;;;5058666;28;20044;-73
2021/03/31 11:13:11;;;;;;;1999.90;999.90;;;24.60;67.40;;;;;;5057507;28;20053;-73
2021/03/31 11:15:38;;;;;;;1999.90;999.90;;;24.80;68.20;;;;;;5056601;28;20052;-73
2021/03/31 11:20:54;;;;;;;1999.90;999.90;;;25.00;69.30;;;;;;5059525;28;20064;-72
2021/03/31 11:26:06;;;;;;;1999.90;999.90;;;25.20;68.30;;;;;;5059910;28;20041;-73
2021/03/31 11:28:36;;;;;;;1999.90;999.90;;;25.30;67.90;;;;;;5057024;28;20157;-73
2021/03/31 11:31:03;;;;;;;1999.90;999.90;;;25.50;67.50;;;;;;5058855;28;20044;-73
2021/03/31 11:33:30;;;;;;;1999.90;999.90;;;25.60;67.80;;;;;;5059942;28;20051;-73
2021/03/31 11:35:56;;;;;;;1999.90;999.90;;;25.70;67.20;;;;;;5059370;28;20121;-72
2021/03/31 11:38:23;;;;;;;1999.90;999.90;;;25.70;64.60;;;;;;5058140;28;20052;-73
2021/03/31 11:40:51;;;;;;;1999.90;999.90;;;25.80;63.70;;;;;;5058850;28;20037;-72
2021/03/31 11:43:18;;;;;;;1999.90;999.90;;;25.80;62.10;;;;;;5058667;28;20117;-72
2021/03/31 11:45:45;;;;;;;1999.90;999.90;;;25.80;62.20;;;;;;5081444;28;20576;-72
2021/03/31 11:48:11;;;;;;;1999.90;999.90;;;25.90;60.70;;;;;;5059981;28;20407;-73
2021/03/31 11:50:37;;;;;;;1999.90;999.90;;;26.00;61.00;;;;;;5057024;28;20086;-72
2021/03/31 11:53:04;;;;;;;1999.90;999.90;;;26.10;61.30;;;;;;5057720;28;20450;-73
2021/03/31 11:55:31;;;;;;;1999.90;999.90;;;26.20;61.60;;;;;;5057919;28;20044;-73
2021/03/31 11:57:57;;;;;;;1999.90;999.90;;;26.30;63.50;;;;;;5057471;28;20131;-72
2021/03/31 12:00:24;;;;;;;1999.90;999.90;;;26.50;64.70;;;;;;5058739;28;20047;-73
2021/03/31 12:02:50;;;;;;;1999.90;999.90;;;26.80;64.70;;;;;;5056878;28;20159;-72
2021/03/31 12:05:17;;;;;;;1999.90;999.90;;;26.90;64.00;;;;;;5059219;28;20052;-73
2021/03/31 12:07:44;;;;;;;1999.90;999.90;;;27.00;64.40;;;;;;5057243;28;20064;-72
2021/03/31 12:10:11;;;;;;;1999.90;999.90;;;27.10;64.10;;;;;;5057033;28;20055;-72
2021/03/31 12:12:39;;;;;;;1999.90;999.90;;;27.10;61.70;;;;;;5051762;28;20052;-72
2021/03/31 12:15:08;;;;;;;1999.90;999.90;;;27.10;62.20;;;;;;5058319;28;20219;-72
2021/03/31 12:17:35;;;;;;;1999.90;999.90;;;27.10;60.20;;;;;;5053217;28;20057;-72
2021/03/31 12:20:01;;;;;;;1999.90;999.90;;;27.00;60.50;;;;;;5057905;28;20052;-72
2021/03/31 12:22:28;;;;;;;1999.90;999.90;;;26.90;59.60;;;;;;5059596;28;20046;-73
2021/03/31 12:24:54;;;;;;;1999.90;999.90;;;26.90;58.20;;;;;;5056373;28;20524;-72
2021/03/31 12:27:22;;;;;;;1999.90;999.90;;;27.00;58.10;;;;;;5058458;28;20064;-71
2021/03/31 12:29:50;;;;;;;1999.90;999.90;;;27.00;58.60;;;;;;5057054;28;20048;-72
2021/03/31 12:32:18;;;;;;;1999.90;999.90;;;26.90;57.40;;;;;;5054696;28;20150;-72
2021/03/31 12:34:45;;;;;;;1999.90;999.90;;;26.90;58.00;;;;;;5056243;28;20132;-72
2021/03/31 12:37:12;;;;;;;1999.90;999.90;;;26.90;57.00;;;;;;5054794;28;20492;-71
2021/03/31 12:39:39;;;;;;;1999.90;999.90;;;26.90;57.70;;;;;;5058037;28;20080;-72
2021/03/31 12:42:06;;;;;;;1999.90;999.90;;;26.80;57.80;;;;;;5055066;28;20415;-72
2021/03/31 12:44:33;;;;;;;1999.90;999.90;;;26.80;57.10;;;;;;5058552;28;20052;-72
2021/03/31 12:46:59;;;;;;;1999.90;999.90;;;26.70;54.50;;;;;;5058317;28;20052;-72